sensor_id;sensor_type;location;lat;lon;timestamp;P1;durP1;ratioP1;P2;durP2;ratioP2
5646;SDS011;2845;48.626;9.362;2024-01-27T00:01:59;0.87;;;0.50;;
5646;SDS011;2845;48.626;9.362;2024-01-27T00:04:36;1.90;;;0.63;;
5646;SDS011;2845;48.626;9.362;2024-01-27T00:07:10;2.73;;;1.00;;
5646;SDS011;2845;48.626;9.362;2024-01-27T00:09:45;2.13;;;0.90;;
5646;SDS011;2845;48.626;9.362;2024-01-27T00:12:19;2.53;;;1.17;;
5646;SDS011;2845;48.626;9.362;2024-01-27T00:14:54;3.60;;;0.97;;
5646;SDS011;2845;48.626;9.362;2024-01-27T00:17:28;3.07;;;0.73;;
5646;SDS011;2845;48.626;9.362;2024-01-27T00:20:04;1.80;;;0.87;;
5646;SDS011;2845;48.626;9.362;2024-01-27T00:22:40;3.07;;;0.83;;
5646;SDS011;2845;48.626;9.362;2024-01-27T00:25:14;2.03;;;0.63;;
5646;SDS011;2845;48.626;9.362;2024-01-27T00:27:49;1.00;;;0.40;;
5646;SDS011;2845;48.626;9.362;2024-01-27T00:30:23;1.30;;;0.43;;
5646;SDS011;2845;48.626;9.362;2024-01-27T00:32:58;1.03;;;0.50;;
5646;SDS011;2845;48.626;9.362;2024-01-27T00:35:33;1.27;;;0.80;;
5646;SDS011;2845;48.626;9.362;2024-01-27T00:38:08;1.10;;;0.50;;
5646;SDS011;2845;48.626;9.362;2024-01-27T00:40:42;2.67;;;0.57;;
5646;SDS011;2845;48.626;9.362;2024-01-27T00:43:16;3.27;;;0.97;;
5646;SDS011;2845;48.626;9.362;2024-01-27T00:45:51;2.37;;;0.90;;
5646;SDS011;2845;48.626;9.362;2024-01-27T00:48:25;2.73;;;1.10;;
5646;SDS011;2845;48.626;9.362;2024-01-27T00:51:07;4.33;;;1.00;;
5646;SDS011;2845;48.626;9.362;2024-01-27T00:53:46;2.07;;;0.67;;
5646;SDS011;2845;48.626;9.362;2024-01-27T00:56:35;0.93;;;0.40;;
5646;SDS011;2845;48.626;9.362;2024-01-27T00:59:11;1.13;;;0.63;;
5646;SDS011;2845;48.626;9.362;2024-01-27T01:01:45;1.63;;;0.70;;
5646;SDS011;2845;48.626;9.362;2024-01-27T01:04:19;0.90;;;0.47;;
5646;SDS011;2845;48.626;9.362;2024-01-27T01:06:55;2.17;;;0.70;;
5646;SDS011;2845;48.626;9.362;2024-01-27T01:09:30;2.13;;;0.50;;
5646;SDS011;2845;48.626;9.362;2024-01-27T01:12:04;1.00;;;0.50;;
5646;SDS011;2845;48.626;9.362;2024-01-27T01:14:39;6.20;;;0.77;;
5646;SDS011;2845;48.626;9.362;2024-01-27T01:17:13;0.40;;;0.20;;
5646;SDS011;2845;48.626;9.362;2024-01-27T01:19:47;5.17;;;0.70;;
5646;SDS011;2845;48.626;9.362;2024-01-27T01:22:23;1.90;;;0.70;;
5646;SDS011;2845;48.626;9.362;2024-01-27T01:24:58;0.50;;;0.30;;
5646;SDS011;2845;48.626;9.362;2024-01-27T01:27:32;1.13;;;0.53;;
5646;SDS011;2845;48.626;9.362;2024-01-27T01:30:07;2.57;;;0.40;;
5646;SDS011;2845;48.626;9.362;2024-01-27T01:32:42;2.03;;;0.50;;
5646;SDS011;2845;48.626;9.362;2024-01-27T01:35:17;3.03;;;0.57;;
5646;SDS011;2845;48.626;9.362;2024-01-27T01:37:52;1.00;;;0.40;;
5646;SDS011;2845;48.626;9.362;2024-01-27T01:40:26;1.53;;;0.50;;
5646;SDS011;2845;48.626;9.362;2024-01-27T01:43:00;1.67;;;0.40;;
5646;SDS011;2845;48.626;9.362;2024-01-27T01:45:36;1.17;;;0.60;;
5646;SDS011;2845;48.626;9.362;2024-01-27T01:48:10;1.93;;;0.53;;
5646;SDS011;2845;48.626;9.362;2024-01-27T01:50:45;3.83;;;0.60;;
5646;SDS011;2845;48.626;9.362;2024-01-27T01:53:21;1.73;;;0.30;;
5646;SDS011;2845;48.626;9.362;2024-01-27T01:55:56;2.17;;;0.40;;
5646;SDS011;2845;48.626;9.362;2024-01-27T01:58:30;2.30;;;0.40;;
5646;SDS011;2845;48.626;9.362;2024-01-27T02:01:06;0.97;;;0.53;;
5646;SDS011;2845;48.626;9.362;2024-01-27T02:03:50;0.60;;;0.20;;
5646;SDS011;2845;48.626;9.362;2024-01-27T02:06:26;2.70;;;0.50;;
5646;SDS011;2845;48.626;9.362;2024-01-27T02:09:01;3.27;;;0.40;;
5646;SDS011;2845;48.626;9.362;2024-01-27T02:11:37;0.70;;;0.30;;
5646;SDS011;2845;48.626;9.362;2024-01-27T02:14:11;2.17;;;0.67;;
5646;SDS011;2845;48.626;9.362;2024-01-27T02:16:46;2.53;;;0.80;;
5646;SDS011;2845;48.626;9.362;2024-01-27T02:19:20;0.83;;;0.30;;
5646;SDS011;2845;48.626;9.362;2024-01-27T02:21:54;1.00;;;0.30;;
5646;SDS011;2845;48.626;9.362;2024-01-27T02:24:30;1.17;;;0.53;;
5646;SDS011;2845;48.626;9.362;2024-01-27T02:27:04;0.87;;;0.47;;
5646;SDS011;2845;48.626;9.362;2024-01-27T02:29:38;3.40;;;0.70;;
5646;SDS011;2845;48.626;9.362;2024-01-27T02:32:12;1.57;;;0.53;;
5646;SDS011;2845;48.626;9.362;2024-01-27T02:34:47;2.10;;;0.73;;
5646;SDS011;2845;48.626;9.362;2024-01-27T02:37:21;1.53;;;0.80;;
5646;SDS011;2845;48.626;9.362;2024-01-27T02:39:57;2.20;;;0.97;;
5646;SDS011;2845;48.626;9.362;2024-01-27T02:42:31;1.30;;;0.80;;
5646;SDS011;2845;48.626;9.362;2024-01-27T02:45:05;1.87;;;0.80;;
5646;SDS011;2845;48.626;9.362;2024-01-27T02:47:40;1.03;;;0.70;;
5646;SDS011;2845;48.626;9.362;2024-01-27T02:50:15;2.37;;;0.70;;
5646;SDS011;2845;48.626;9.362;2024-01-27T02:52:49;4.90;;;1.03;;
5646;SDS011;2845;48.626;9.362;2024-01-27T02:55:24;0.90;;;0.40;;
5646;SDS011;2845;48.626;9.362;2024-01-27T02:57:58;1.97;;;0.80;;
5646;SDS011;2845;48.626;9.362;2024-01-27T03:00:33;2.40;;;0.73;;
5646;SDS011;2845;48.626;9.362;2024-01-27T03:03:07;1.53;;;0.67;;
5646;SDS011;2845;48.626;9.362;2024-01-27T03:05:41;1.77;;;0.67;;
5646;SDS011;2845;48.626;9.362;2024-01-27T03:08:16;4.27;;;0.70;;
5646;SDS011;2845;48.626;9.362;2024-01-27T03:10:51;0.93;;;0.60;;
5646;SDS011;2845;48.626;9.362;2024-01-27T03:13:26;2.17;;;0.67;;
5646;SDS011;2845;48.626;9.362;2024-01-27T03:16:00;4.23;;;0.93;;
5646;SDS011;2845;48.626;9.362;2024-01-27T03:18:34;1.87;;;0.73;;
5646;SDS011;2845;48.626;9.362;2024-01-27T03:21:09;2.60;;;0.60;;
5646;SDS011;2845;48.626;9.362;2024-01-27T03:23:43;1.50;;;0.70;;
5646;SDS011;2845;48.626;9.362;2024-01-27T03:26:19;1.90;;;0.80;;
5646;SDS011;2845;48.626;9.362;2024-01-27T03:28:53;1.37;;;0.67;;
5646;SDS011;2845;48.626;9.362;2024-01-27T03:31:29;2.33;;;0.80;;
5646;SDS011;2845;48.626;9.362;2024-01-27T03:34:04;3.00;;;1.50;;
5646;SDS011;2845;48.626;9.362;2024-01-27T03:36:39;2.70;;;1.00;;
5646;SDS011;2845;48.626;9.362;2024-01-27T03:39:13;3.63;;;1.10;;
5646;SDS011;2845;48.626;9.362;2024-01-27T03:41:49;2.70;;;1.30;;
5646;SDS011;2845;48.626;9.362;2024-01-27T03:44:23;2.47;;;0.90;;
5646;SDS011;2845;48.626;9.362;2024-01-27T03:46:57;3.43;;;1.53;;
5646;SDS011;2845;48.626;9.362;2024-01-27T03:49:31;2.10;;;0.70;;
5646;SDS011;2845;48.626;9.362;2024-01-27T03:52:06;1.97;;;0.93;;
5646;SDS011;2845;48.626;9.362;2024-01-27T03:54:40;2.13;;;0.80;;
5646;SDS011;2845;48.626;9.362;2024-01-27T03:57:16;2.87;;;0.87;;
5646;SDS011;2845;48.626;9.362;2024-01-27T03:59:50;2.27;;;1.10;;
5646;SDS011;2845;48.626;9.362;2024-01-27T04:02:24;1.77;;;0.53;;
5646;SDS011;2845;48.626;9.362;2024-01-27T04:04:58;2.80;;;0.90;;
5646;SDS011;2845;48.626;9.362;2024-01-27T04:07:32;2.77;;;0.93;;
5646;SDS011;2845;48.626;9.362;2024-01-27T04:10:07;1.67;;;0.73;;
5646;SDS011;2845;48.626;9.362;2024-01-27T04:12:43;1.57;;;0.60;;
5646;SDS011;2845;48.626;9.362;2024-01-27T04:15:17;1.60;;;0.70;;
5646;SDS011;2845;48.626;9.362;2024-01-27T04:17:52;2.63;;;0.90;;
5646;SDS011;2845;48.626;9.362;2024-01-27T04:20:27;3.50;;;1.07;;
5646;SDS011;2845;48.626;9.362;2024-01-27T04:23:01;3.90;;;0.80;;
5646;SDS011;2845;48.626;9.362;2024-01-27T04:25:36;0.63;;;0.50;;
5646;SDS011;2845;48.626;9.362;2024-01-27T04:28:11;1.67;;;0.70;;
5646;SDS011;2845;48.626;9.362;2024-01-27T04:30:45;2.67;;;0.90;;
5646;SDS011;2845;48.626;9.362;2024-01-27T04:33:20;3.60;;;1.10;;
5646;SDS011;2845;48.626;9.362;2024-01-27T04:35:54;3.13;;;0.70;;
5646;SDS011;2845;48.626;9.362;2024-01-27T04:38:28;2.30;;;0.77;;
5646;SDS011;2845;48.626;9.362;2024-01-27T04:41:02;2.13;;;0.70;;
5646;SDS011;2845;48.626;9.362;2024-01-27T04:43:38;2.93;;;0.83;;
5646;SDS011;2845;48.626;9.362;2024-01-27T04:46:12;3.57;;;0.80;;
5646;SDS011;2845;48.626;9.362;2024-01-27T04:48:47;4.30;;;1.03;;
5646;SDS011;2845;48.626;9.362;2024-01-27T04:51:21;3.93;;;1.10;;
5646;SDS011;2845;48.626;9.362;2024-01-27T04:53:55;3.67;;;1.03;;
5646;SDS011;2845;48.626;9.362;2024-01-27T04:56:30;3.70;;;1.40;;
5646;SDS011;2845;48.626;9.362;2024-01-27T04:59:05;2.70;;;0.90;;
5646;SDS011;2845;48.626;9.362;2024-01-27T05:01:43;2.13;;;0.90;;
5646;SDS011;2845;48.626;9.362;2024-01-27T05:04:18;2.37;;;1.07;;
5646;SDS011;2845;48.626;9.362;2024-01-27T05:06:52;3.17;;;1.30;;
5646;SDS011;2845;48.626;9.362;2024-01-27T05:09:27;4.13;;;0.90;;
5646;SDS011;2845;48.626;9.362;2024-01-27T05:12:01;1.63;;;0.77;;
5646;SDS011;2845;48.626;9.362;2024-01-27T05:14:37;2.63;;;1.13;;
5646;SDS011;2845;48.626;9.362;2024-01-27T05:19:50;4.90;;;1.07;;
5646;SDS011;2845;48.626;9.362;2024-01-27T05:22:25;2.40;;;1.00;;
5646;SDS011;2845;48.626;9.362;2024-01-27T05:24:59;1.73;;;0.87;;
5646;SDS011;2845;48.626;9.362;2024-01-27T05:27:34;2.17;;;0.97;;
5646;SDS011;2845;48.626;9.362;2024-01-27T05:30:12;2.20;;;0.87;;
5646;SDS011;2845;48.626;9.362;2024-01-27T05:32:46;4.17;;;1.30;;
5646;SDS011;2845;48.626;9.362;2024-01-27T05:35:21;6.77;;;1.33;;
5646;SDS011;2845;48.626;9.362;2024-01-27T05:37:56;3.30;;;1.33;;
5646;SDS011;2845;48.626;9.362;2024-01-27T05:40:30;2.73;;;1.00;;
5646;SDS011;2845;48.626;9.362;2024-01-27T05:43:04;3.03;;;1.10;;
5646;SDS011;2845;48.626;9.362;2024-01-27T05:45:40;4.63;;;1.53;;
5646;SDS011;2845;48.626;9.362;2024-01-27T05:48:14;4.57;;;1.10;;
5646;SDS011;2845;48.626;9.362;2024-01-27T05:50:56;2.53;;;0.87;;
5646;SDS011;2845;48.626;9.362;2024-01-27T05:53:31;3.67;;;1.63;;
5646;SDS011;2845;48.626;9.362;2024-01-27T05:56:08;3.63;;;1.33;;
5646;SDS011;2845;48.626;9.362;2024-01-27T05:58:42;2.47;;;1.10;;
5646;SDS011;2845;48.626;9.362;2024-01-27T06:01:18;2.40;;;0.70;;
5646;SDS011;2845;48.626;9.362;2024-01-27T06:03:53;3.33;;;1.23;;
5646;SDS011;2845;48.626;9.362;2024-01-27T06:06:27;1.93;;;0.87;;
5646;SDS011;2845;48.626;9.362;2024-01-27T06:09:02;3.53;;;0.80;;
5646;SDS011;2845;48.626;9.362;2024-01-27T06:11:37;3.80;;;0.70;;
5646;SDS011;2845;48.626;9.362;2024-01-27T06:14:11;2.77;;;1.23;;
5646;SDS011;2845;48.626;9.362;2024-01-27T06:16:46;3.00;;;1.37;;
5646;SDS011;2845;48.626;9.362;2024-01-27T06:19:20;3.40;;;1.23;;
5646;SDS011;2845;48.626;9.362;2024-01-27T06:21:55;2.87;;;1.10;;
5646;SDS011;2845;48.626;9.362;2024-01-27T06:24:29;1.63;;;0.97;;
5646;SDS011;2845;48.626;9.362;2024-01-27T06:27:04;3.37;;;1.23;;
5646;SDS011;2845;48.626;9.362;2024-01-27T06:29:38;2.97;;;1.00;;
5646;SDS011;2845;48.626;9.362;2024-01-27T06:32:15;0.70;;;0.50;;
5646;SDS011;2845;48.626;9.362;2024-01-27T06:34:49;1.43;;;0.80;;
5646;SDS011;2845;48.626;9.362;2024-01-27T06:37:24;2.33;;;0.93;;
5646;SDS011;2845;48.626;9.362;2024-01-27T06:39:58;2.60;;;1.20;;
5646;SDS011;2845;48.626;9.362;2024-01-27T06:42:32;4.00;;;1.10;;
5646;SDS011;2845;48.626;9.362;2024-01-27T06:45:07;3.10;;;1.27;;
5646;SDS011;2845;48.626;9.362;2024-01-27T06:47:43;5.03;;;0.90;;
5646;SDS011;2845;48.626;9.362;2024-01-27T06:50:17;2.33;;;1.10;;
5646;SDS011;2845;48.626;9.362;2024-01-27T06:52:51;4.83;;;0.87;;
5646;SDS011;2845;48.626;9.362;2024-01-27T06:55:26;2.70;;;1.00;;
5646;SDS011;2845;48.626;9.362;2024-01-27T06:58:00;2.47;;;1.00;;
5646;SDS011;2845;48.626;9.362;2024-01-27T07:00:34;4.43;;;1.40;;
5646;SDS011;2845;48.626;9.362;2024-01-27T07:03:10;3.73;;;1.07;;
5646;SDS011;2845;48.626;9.362;2024-01-27T07:05:45;4.27;;;1.03;;
5646;SDS011;2845;48.626;9.362;2024-01-27T07:08:19;2.83;;;1.10;;
5646;SDS011;2845;48.626;9.362;2024-01-27T07:10:54;2.73;;;0.90;;
5646;SDS011;2845;48.626;9.362;2024-01-27T07:13:28;3.03;;;0.97;;
5646;SDS011;2845;48.626;9.362;2024-01-27T07:16:02;3.30;;;1.30;;
5646;SDS011;2845;48.626;9.362;2024-01-27T07:18:39;2.80;;;1.10;;
5646;SDS011;2845;48.626;9.362;2024-01-27T07:21:14;2.83;;;1.30;;
5646;SDS011;2845;48.626;9.362;2024-01-27T07:23:49;2.40;;;0.90;;
5646;SDS011;2845;48.626;9.362;2024-01-27T07:26:25;2.93;;;1.13;;
5646;SDS011;2845;48.626;9.362;2024-01-27T07:29:00;2.97;;;1.27;;
5646;SDS011;2845;48.626;9.362;2024-01-27T07:31:34;3.77;;;1.43;;
5646;SDS011;2845;48.626;9.362;2024-01-27T07:34:10;3.97;;;1.10;;
5646;SDS011;2845;48.626;9.362;2024-01-27T07:36:45;3.53;;;1.00;;
5646;SDS011;2845;48.626;9.362;2024-01-27T07:39:20;3.33;;;1.60;;
5646;SDS011;2845;48.626;9.362;2024-01-27T07:41:55;3.57;;;1.70;;
5646;SDS011;2845;48.626;9.362;2024-01-27T07:44:31;2.77;;;1.33;;
5646;SDS011;2845;48.626;9.362;2024-01-27T07:47:06;4.90;;;1.60;;
5646;SDS011;2845;48.626;9.362;2024-01-27T07:49:42;1.43;;;0.80;;
5646;SDS011;2845;48.626;9.362;2024-01-27T07:52:17;3.20;;;1.27;;
5646;SDS011;2845;48.626;9.362;2024-01-27T07:54:51;2.20;;;0.90;;
5646;SDS011;2845;48.626;9.362;2024-01-27T07:57:27;3.90;;;1.10;;
5646;SDS011;2845;48.626;9.362;2024-01-27T08:00:01;2.57;;;0.90;;
5646;SDS011;2845;48.626;9.362;2024-01-27T08:02:38;3.40;;;1.23;;
5646;SDS011;2845;48.626;9.362;2024-01-27T08:05:14;1.60;;;1.07;;
5646;SDS011;2845;48.626;9.362;2024-01-27T08:07:53;5.90;;;1.70;;
5646;SDS011;2845;48.626;9.362;2024-01-27T08:10:28;3.17;;;1.17;;
5646;SDS011;2845;48.626;9.362;2024-01-27T08:13:36;2.77;;;1.00;;
5646;SDS011;2845;48.626;9.362;2024-01-27T08:16:40;0.97;;;0.57;;
5646;SDS011;2845;48.626;9.362;2024-01-27T08:19:30;2.97;;;1.10;;
5646;SDS011;2845;48.626;9.362;2024-01-27T08:22:11;2.30;;;1.10;;
5646;SDS011;2845;48.626;9.362;2024-01-27T08:24:59;2.00;;;0.93;;
5646;SDS011;2845;48.626;9.362;2024-01-27T08:27:33;2.57;;;0.90;;
5646;SDS011;2845;48.626;9.362;2024-01-27T08:30:08;4.27;;;1.33;;
5646;SDS011;2845;48.626;9.362;2024-01-27T08:32:43;2.83;;;1.20;;
5646;SDS011;2845;48.626;9.362;2024-01-27T08:35:18;3.20;;;1.37;;
5646;SDS011;2845;48.626;9.362;2024-01-27T08:37:54;3.97;;;1.60;;
5646;SDS011;2845;48.626;9.362;2024-01-27T08:40:29;2.13;;;1.20;;
5646;SDS011;2845;48.626;9.362;2024-01-27T08:43:03;2.83;;;1.07;;
5646;SDS011;2845;48.626;9.362;2024-01-27T08:45:38;2.47;;;1.33;;
5646;SDS011;2845;48.626;9.362;2024-01-27T08:48:12;4.67;;;1.77;;
5646;SDS011;2845;48.626;9.362;2024-01-27T08:50:47;3.20;;;1.03;;
5646;SDS011;2845;48.626;9.362;2024-01-27T08:53:23;4.33;;;2.03;;
5646;SDS011;2845;48.626;9.362;2024-01-27T08:55:58;6.50;;;1.83;;
5646;SDS011;2845;48.626;9.362;2024-01-27T08:58:32;4.93;;;1.90;;
5646;SDS011;2845;48.626;9.362;2024-01-27T09:01:06;6.20;;;2.17;;
5646;SDS011;2845;48.626;9.362;2024-01-27T09:03:42;8.33;;;3.13;;
5646;SDS011;2845;48.626;9.362;2024-01-27T09:06:16;4.70;;;2.50;;
5646;SDS011;2845;48.626;9.362;2024-01-27T09:08:53;9.40;;;2.80;;
5646;SDS011;2845;48.626;9.362;2024-01-27T09:11:27;4.83;;;2.10;;
5646;SDS011;2845;48.626;9.362;2024-01-27T09:14:02;3.70;;;2.20;;
5646;SDS011;2845;48.626;9.362;2024-01-27T09:16:39;7.37;;;2.20;;
5646;SDS011;2845;48.626;9.362;2024-01-27T09:19:14;4.37;;;1.80;;
5646;SDS011;2845;48.626;9.362;2024-01-27T09:21:48;3.97;;;1.80;;
5646;SDS011;2845;48.626;9.362;2024-01-27T09:24:23;5.30;;;2.03;;
5646;SDS011;2845;48.626;9.362;2024-01-27T09:26:58;6.80;;;2.27;;
5646;SDS011;2845;48.626;9.362;2024-01-27T09:29:32;5.77;;;2.73;;
5646;SDS011;2845;48.626;9.362;2024-01-27T09:32:06;8.53;;;2.97;;
5646;SDS011;2845;48.626;9.362;2024-01-27T09:34:42;10.17;;;3.33;;
5646;SDS011;2845;48.626;9.362;2024-01-27T09:37:16;7.20;;;2.90;;
5646;SDS011;2845;48.626;9.362;2024-01-27T09:39:51;7.37;;;3.10;;
5646;SDS011;2845;48.626;9.362;2024-01-27T09:42:27;7.83;;;2.80;;
5646;SDS011;2845;48.626;9.362;2024-01-27T09:45:02;6.87;;;3.00;;
5646;SDS011;2845;48.626;9.362;2024-01-27T09:47:36;6.03;;;2.60;;
5646;SDS011;2845;48.626;9.362;2024-01-27T09:50:12;5.67;;;2.93;;
5646;SDS011;2845;48.626;9.362;2024-01-27T09:52:48;7.03;;;2.63;;
5646;SDS011;2845;48.626;9.362;2024-01-27T09:55:23;4.43;;;2.47;;
5646;SDS011;2845;48.626;9.362;2024-01-27T09:57:58;5.43;;;2.00;;
5646;SDS011;2845;48.626;9.362;2024-01-27T10:00:34;4.77;;;2.10;;
5646;SDS011;2845;48.626;9.362;2024-01-27T10:03:09;5.80;;;2.20;;
5646;SDS011;2845;48.626;9.362;2024-01-27T10:05:44;5.97;;;2.03;;
5646;SDS011;2845;48.626;9.362;2024-01-27T10:08:19;5.47;;;2.10;;
5646;SDS011;2845;48.626;9.362;2024-01-27T10:10:56;3.47;;;1.80;;
5646;SDS011;2845;48.626;9.362;2024-01-27T10:13:31;5.15;;;2.17;;
5646;SDS011;2845;48.626;9.362;2024-01-27T10:16:06;3.80;;;1.37;;
5646;SDS011;2845;48.626;9.362;2024-01-27T10:18:42;7.55;;;1.92;;
5646;SDS011;2845;48.626;9.362;2024-01-27T10:21:17;3.85;;;1.98;;
5646;SDS011;2845;48.626;9.362;2024-01-27T10:23:53;4.15;;;2.10;;
5646;SDS011;2845;48.626;9.362;2024-01-27T10:26:31;6.95;;;2.13;;
5646;SDS011;2845;48.626;9.362;2024-01-27T10:29:05;5.57;;;2.35;;
5646;SDS011;2845;48.626;9.362;2024-01-27T10:31:40;6.55;;;1.90;;
5646;SDS011;2845;48.626;9.362;2024-01-27T10:34:15;3.65;;;1.63;;
5646;SDS011;2845;48.626;9.362;2024-01-27T10:36:53;4.18;;;1.58;;
5646;SDS011;2845;48.626;9.362;2024-01-27T10:39:27;4.10;;;1.95;;
5646;SDS011;2845;48.626;9.362;2024-01-27T10:42:03;6.22;;;2.22;;
5646;SDS011;2845;48.626;9.362;2024-01-27T10:44:39;4.82;;;1.80;;
5646;SDS011;2845;48.626;9.362;2024-01-27T10:47:16;4.65;;;2.30;;
5646;SDS011;2845;48.626;9.362;2024-01-27T10:49:55;4.95;;;2.10;;
5646;SDS011;2845;48.626;9.362;2024-01-27T10:52:31;5.85;;;2.63;;
5646;SDS011;2845;48.626;9.362;2024-01-27T10:55:06;5.57;;;2.15;;
5646;SDS011;2845;48.626;9.362;2024-01-27T10:57:44;4.55;;;2.10;;
5646;SDS011;2845;48.626;9.362;2024-01-27T11:00:21;4.22;;;1.75;;
5646;SDS011;2845;48.626;9.362;2024-01-27T11:02:58;4.40;;;2.15;;
5646;SDS011;2845;48.626;9.362;2024-01-27T11:05:37;6.05;;;2.33;;
5646;SDS011;2845;48.626;9.362;2024-01-27T11:08:13;5.00;;;2.22;;
5646;SDS011;2845;48.626;9.362;2024-01-27T11:10:49;5.28;;;2.25;;
5646;SDS011;2845;48.626;9.362;2024-01-27T11:13:25;4.07;;;2.10;;
5646;SDS011;2845;48.626;9.362;2024-01-27T11:16:01;3.28;;;1.67;;
5646;SDS011;2845;48.626;9.362;2024-01-27T11:18:35;6.53;;;2.97;;
5646;SDS011;2845;48.626;9.362;2024-01-27T11:21:12;4.80;;;2.03;;
5646;SDS011;2845;48.626;9.362;2024-01-27T11:23:48;4.97;;;2.75;;
5646;SDS011;2845;48.626;9.362;2024-01-27T11:26:23;5.10;;;2.65;;
5646;SDS011;2845;48.626;9.362;2024-01-27T11:29:06;3.90;;;2.13;;
5646;SDS011;2845;48.626;9.362;2024-01-27T11:31:43;5.68;;;2.20;;
5646;SDS011;2845;48.626;9.362;2024-01-27T11:34:17;4.30;;;1.80;;
5646;SDS011;2845;48.626;9.362;2024-01-27T11:36:53;7.03;;;2.65;;
5646;SDS011;2845;48.626;9.362;2024-01-27T11:39:28;5.30;;;2.25;;
5646;SDS011;2845;48.626;9.362;2024-01-27T11:42:06;5.53;;;2.20;;
5646;SDS011;2845;48.626;9.362;2024-01-27T11:44:45;6.13;;;2.47;;
5646;SDS011;2845;48.626;9.362;2024-01-27T11:47:19;4.15;;;1.52;;
5646;SDS011;2845;48.626;9.362;2024-01-27T11:49:54;6.25;;;1.42;;
5646;SDS011;2845;48.626;9.362;2024-01-27T11:52:30;4.57;;;1.58;;
5646;SDS011;2845;48.626;9.362;2024-01-27T11:55:06;3.33;;;1.63;;
5646;SDS011;2845;48.626;9.362;2024-01-27T11:57:41;6.68;;;2.22;;
5646;SDS011;2845;48.626;9.362;2024-01-27T12:00:17;7.00;;;2.25;;
5646;SDS011;2845;48.626;9.362;2024-01-27T12:02:52;4.50;;;2.20;;
5646;SDS011;2845;48.626;9.362;2024-01-27T12:05:26;4.88;;;1.85;;
5646;SDS011;2845;48.626;9.362;2024-01-27T12:08:00;2.90;;;1.60;;
5646;SDS011;2845;48.626;9.362;2024-01-27T12:10:34;4.40;;;1.90;;
5646;SDS011;2845;48.626;9.362;2024-01-27T12:13:09;3.85;;;1.60;;
5646;SDS011;2845;48.626;9.362;2024-01-27T12:15:45;4.50;;;1.70;;
5646;SDS011;2845;48.626;9.362;2024-01-27T12:18:20;4.90;;;1.35;;
5646;SDS011;2845;48.626;9.362;2024-01-27T12:20:55;3.97;;;1.80;;
5646;SDS011;2845;48.626;9.362;2024-01-27T12:23:30;8.73;;;2.92;;
5646;SDS011;2845;48.626;9.362;2024-01-27T12:26:05;6.55;;;1.90;;
5646;SDS011;2845;48.626;9.362;2024-01-27T12:28:39;7.68;;;2.65;;
5646;SDS011;2845;48.626;9.362;2024-01-27T12:31:16;5.25;;;1.60;;
5646;SDS011;2845;48.626;9.362;2024-01-27T12:33:51;3.30;;;1.80;;
5646;SDS011;2845;48.626;9.362;2024-01-27T12:36:28;4.95;;;1.90;;
5646;SDS011;2845;48.626;9.362;2024-01-27T12:39:02;5.25;;;1.80;;
5646;SDS011;2845;48.626;9.362;2024-01-27T12:41:37;2.78;;;1.70;;
5646;SDS011;2845;48.626;9.362;2024-01-27T12:44:11;5.10;;;2.42;;
5646;SDS011;2845;48.626;9.362;2024-01-27T12:46:47;6.35;;;2.08;;
5646;SDS011;2845;48.626;9.362;2024-01-27T12:49:21;4.25;;;1.95;;
5646;SDS011;2845;48.626;9.362;2024-01-27T12:51:56;4.57;;;1.80;;
5646;SDS011;2845;48.626;9.362;2024-01-27T12:54:30;5.85;;;1.92;;
5646;SDS011;2845;48.626;9.362;2024-01-27T12:57:04;3.08;;;1.75;;
5646;SDS011;2845;48.626;9.362;2024-01-27T12:59:40;6.05;;;1.80;;
5646;SDS011;2845;48.626;9.362;2024-01-27T13:02:15;6.30;;;2.05;;
5646;SDS011;2845;48.626;9.362;2024-01-27T13:04:50;5.07;;;1.65;;
5646;SDS011;2845;48.626;9.362;2024-01-27T13:07:24;6.22;;;2.60;;
5646;SDS011;2845;48.626;9.362;2024-01-27T13:09:58;6.57;;;2.17;;
5646;SDS011;2845;48.626;9.362;2024-01-27T13:12:36;4.45;;;1.98;;
5646;SDS011;2845;48.626;9.362;2024-01-27T13:15:11;5.13;;;2.03;;
5646;SDS011;2845;48.626;9.362;2024-01-27T13:17:46;4.55;;;2.00;;
5646;SDS011;2845;48.626;9.362;2024-01-27T13:20:21;4.13;;;1.50;;
5646;SDS011;2845;48.626;9.362;2024-01-27T13:22:55;8.07;;;2.00;;
5646;SDS011;2845;48.626;9.362;2024-01-27T13:25:29;5.40;;;2.15;;
5646;SDS011;2845;48.626;9.362;2024-01-27T13:28:04;5.20;;;1.50;;
5646;SDS011;2845;48.626;9.362;2024-01-27T13:30:39;7.47;;;2.40;;
5646;SDS011;2845;48.626;9.362;2024-01-27T13:33:16;6.65;;;2.00;;
5646;SDS011;2845;48.626;9.362;2024-01-27T13:35:51;5.25;;;2.08;;
5646;SDS011;2845;48.626;9.362;2024-01-27T13:38:25;5.70;;;2.05;;
5646;SDS011;2845;48.626;9.362;2024-01-27T13:40:59;5.15;;;1.98;;
5646;SDS011;2845;48.626;9.362;2024-01-27T13:43:34;3.65;;;2.00;;
5646;SDS011;2845;48.626;9.362;2024-01-27T13:46:08;4.03;;;1.85;;
5646;SDS011;2845;48.626;9.362;2024-01-27T13:48:44;5.88;;;1.90;;
5646;SDS011;2845;48.626;9.362;2024-01-27T13:51:19;6.00;;;1.98;;
5646;SDS011;2845;48.626;9.362;2024-01-27T13:53:53;5.18;;;1.88;;
5646;SDS011;2845;48.626;9.362;2024-01-27T13:56:27;6.18;;;1.63;;
5646;SDS011;2845;48.626;9.362;2024-01-27T13:59:05;5.88;;;2.05;;
5646;SDS011;2845;48.626;9.362;2024-01-27T14:01:39;2.83;;;1.30;;
5646;SDS011;2845;48.626;9.362;2024-01-27T14:04:15;3.72;;;2.08;;
5646;SDS011;2845;48.626;9.362;2024-01-27T14:06:49;5.57;;;1.73;;
5646;SDS011;2845;48.626;9.362;2024-01-27T14:09:24;3.97;;;1.15;;
5646;SDS011;2845;48.626;9.362;2024-01-27T14:11:59;3.90;;;1.70;;
5646;SDS011;2845;48.626;9.362;2024-01-27T14:14:33;6.18;;;2.30;;
5646;SDS011;2845;48.626;9.362;2024-01-27T14:17:10;4.38;;;1.45;;
5646;SDS011;2845;48.626;9.362;2024-01-27T14:19:46;3.45;;;1.23;;
5646;SDS011;2845;48.626;9.362;2024-01-27T14:22:21;2.08;;;1.13;;
5646;SDS011;2845;48.626;9.362;2024-01-27T14:24:55;4.55;;;1.48;;
5646;SDS011;2845;48.626;9.362;2024-01-27T14:27:29;3.45;;;1.30;;
5646;SDS011;2845;48.626;9.362;2024-01-27T14:30:04;4.25;;;1.10;;
5646;SDS011;2845;48.626;9.362;2024-01-27T14:32:39;7.03;;;1.67;;
5646;SDS011;2845;48.626;9.362;2024-01-27T14:35:15;3.28;;;0.98;;
5646;SDS011;2845;48.626;9.362;2024-01-27T14:37:49;3.88;;;1.05;;
5646;SDS011;2845;48.626;9.362;2024-01-27T14:40:26;2.05;;;1.00;;
5646;SDS011;2845;48.626;9.362;2024-01-27T14:43:00;2.90;;;1.30;;
5646;SDS011;2845;48.626;9.362;2024-01-27T14:45:40;4.30;;;1.65;;
5646;SDS011;2845;48.626;9.362;2024-01-27T14:48:15;3.00;;;1.25;;
5646;SDS011;2845;48.626;9.362;2024-01-27T14:50:53;3.90;;;1.30;;
5646;SDS011;2845;48.626;9.362;2024-01-27T14:53:31;4.00;;;1.65;;
5646;SDS011;2845;48.626;9.362;2024-01-27T14:56:05;4.88;;;1.40;;
5646;SDS011;2845;48.626;9.362;2024-01-27T14:58:39;2.30;;;0.80;;
5646;SDS011;2845;48.626;9.362;2024-01-27T15:01:13;2.67;;;1.40;;
5646;SDS011;2845;48.626;9.362;2024-01-27T15:03:49;3.60;;;1.58;;
5646;SDS011;2845;48.626;9.362;2024-01-27T15:06:25;2.85;;;1.05;;
5646;SDS011;2845;48.626;9.362;2024-01-27T15:08:59;3.85;;;1.30;;
5646;SDS011;2845;48.626;9.362;2024-01-27T15:11:33;3.50;;;1.45;;
5646;SDS011;2845;48.626;9.362;2024-01-27T15:14:07;3.53;;;1.08;;
5646;SDS011;2845;48.626;9.362;2024-01-27T15:16:41;2.30;;;0.90;;
5646;SDS011;2845;48.626;9.362;2024-01-27T15:19:16;2.97;;;1.27;;
5646;SDS011;2845;48.626;9.362;2024-01-27T15:21:51;2.55;;;1.02;;
5646;SDS011;2845;48.626;9.362;2024-01-27T15:24:26;2.47;;;0.75;;
5646;SDS011;2845;48.626;9.362;2024-01-27T15:27:01;3.50;;;1.10;;
5646;SDS011;2845;48.626;9.362;2024-01-27T15:29:43;9.55;;;2.50;;
5646;SDS011;2845;48.626;9.362;2024-01-27T15:32:17;4.03;;;1.42;;
5646;SDS011;2845;48.626;9.362;2024-01-27T15:34:54;4.57;;;1.20;;
5646;SDS011;2845;48.626;9.362;2024-01-27T15:37:29;2.85;;;0.80;;
5646;SDS011;2845;48.626;9.362;2024-01-27T15:40:04;3.65;;;1.02;;
5646;SDS011;2845;48.626;9.362;2024-01-27T15:42:40;4.65;;;0.70;;
5646;SDS011;2845;48.626;9.362;2024-01-27T15:45:14;2.20;;;0.88;;
5646;SDS011;2845;48.626;9.362;2024-01-27T15:47:48;3.70;;;1.20;;
5646;SDS011;2845;48.626;9.362;2024-01-27T15:50:24;1.60;;;0.75;;
5646;SDS011;2845;48.626;9.362;2024-01-27T15:53:03;3.50;;;0.82;;
5646;SDS011;2845;48.626;9.362;2024-01-27T15:55:37;3.60;;;0.95;;
5646;SDS011;2845;48.626;9.362;2024-01-27T15:58:12;2.47;;;0.85;;
5646;SDS011;2845;48.626;9.362;2024-01-27T16:00:46;2.92;;;0.80;;
5646;SDS011;2845;48.626;9.362;2024-01-27T16:03:20;3.50;;;0.88;;
5646;SDS011;2845;48.626;9.362;2024-01-27T16:05:57;2.28;;;0.80;;
5646;SDS011;2845;48.626;9.362;2024-01-27T16:08:33;2.20;;;0.70;;